createdAt,value
2022-08-07T00:01:44.256Z,79.76
2022-08-07T00:04:46.188Z,79.77
2022-08-07T00:07:40.088Z,80.39
2022-08-07T00:10:31.561Z,80.27
2022-08-07T00:13:25.671Z,80.29
2022-08-07T00:16:17.651Z,80.70
2022-08-07T00:19:26.203Z,80.96
2022-08-07T00:22:35.567Z,81.04
2022-08-07T00:25:25.156Z,81.24
2022-08-07T00:28:15.481Z,81.21
2022-08-07T00:31:12.695Z,81.51
2022-08-07T00:34:04.211Z,81.81
2022-08-07T00:36:58.024Z,81.42
2022-08-07T00:39:54.337Z,81.78
2022-08-07T00:42:42.680Z,81.73
2022-08-07T00:45:31.158Z,82.15
2022-08-07T00:48:19.727Z,82.27
2022-08-07T00:51:19.401Z,82.18
2022-08-07T00:54:07.976Z,82.22
2022-08-07T00:57:00.388Z,82.25
2022-08-07T00:59:48.938Z,82.73
2022-08-07T01:02:37.210Z,82.50
2022-08-07T01:05:29.064Z,82.43
2022-08-07T01:08:17.772Z,82.52
2022-08-07T01:11:22.920Z,82.36
2022-08-07T01:14:21.273Z,82.53
2022-08-07T01:17:16.502Z,82.67
2022-08-07T01:20:17.116Z,82.54
2022-08-07T01:23:12.758Z,83.17
2022-08-07T01:26:02.745Z,83.34
2022-08-07T01:28:53.893Z,83.78
2022-08-07T01:31:51.215Z,83.91
2022-08-07T01:34:39.465Z,83.60
2022-08-07T01:37:33.901Z,83.33
2022-08-07T01:40:24.998Z,83.63
2022-08-07T01:43:17.818Z,83.56
2022-08-07T01:46:08.397Z,83.55
2022-08-07T01:49:03.219Z,83.69
2022-08-07T01:52:02.503Z,83.48
2022-08-07T01:54:56.601Z,83.70
2022-08-07T01:58:06.944Z,84.05
2022-08-07T02:01:09.725Z,83.67
2022-08-07T02:04:36.197Z,84.28
2022-08-07T02:07:44.695Z,84.33
2022-08-07T02:10:43.180Z,84.57
2022-08-07T02:13:57.930Z,84.63
2022-08-07T02:16:51.654Z,84.75
2022-08-07T02:20:06.593Z,85.03
2022-08-07T02:22:59.877Z,85.05
2022-08-07T02:26:30.735Z,85.44
2022-08-07T02:28:58.454Z,86.15
2022-08-07T02:31:49.752Z,86.10
2022-08-07T02:34:48.893Z,86.67
2022-08-07T02:37:44.097Z,86.14
2022-08-07T02:40:35.276Z,86.23
2022-08-07T02:43:25.116Z,86.02
2022-08-07T02:46:17.584Z,86.30
2022-08-07T02:49:07.544Z,86.17
2022-08-07T02:51:59.272Z,86.42
2022-08-07T02:54:49.580Z,86.22
2022-08-07T02:57:41.497Z,86.82
2022-08-07T03:00:39.084Z,86.14
2022-08-07T03:03:42.271Z,86.11
2022-08-07T03:06:40.056Z,85.96
2022-08-07T03:09:42.343Z,85.85
2022-08-07T03:12:34.770Z,86.31
2022-08-07T03:15:47.737Z,86.11
2022-08-07T03:18:36.455Z,86.28
2022-08-07T03:21:27.749Z,86.22
2022-08-07T03:24:18.961Z,86.20
2022-08-07T03:27:30.108Z,86.52
2022-08-07T03:30:24.307Z,86.49
2022-08-07T03:33:14.723Z,86.09
2022-08-07T03:36:03.384Z,86.12
2022-08-07T03:39:05.848Z,85.95
2022-08-07T03:41:58.514Z,85.85
2022-08-07T03:44:53.674Z,85.45
2022-08-07T03:47:51.116Z,85.39
2022-08-07T03:50:43.252Z,84.81
2022-08-07T03:54:32.814Z,84.50
2022-08-07T03:57:03.605Z,84.12
2022-08-07T04:00:01.660Z,83.83
2022-08-07T04:02:52.932Z,83.79
2022-08-07T04:05:50.850Z,83.50
2022-08-07T04:08:42.424Z,83.49
2022-08-07T04:12:23.991Z,83.25
2022-08-07T04:14:47.691Z,83.14
2022-08-07T04:18:30.964Z,82.78
2022-08-07T04:20:54.572Z,82.13
2022-08-07T04:24:03.612Z,81.59
2022-08-07T04:26:52.380Z,81.30
2022-08-07T04:30:01.113Z,80.99
2022-08-07T04:33:15.712Z,80.78
2022-08-07T04:36:09.093Z,80.61
2022-08-07T04:38:57.452Z,80.50
2022-08-07T04:41:50.894Z,80.25
2022-08-07T04:44:54.799Z,79.88
2022-08-07T04:48:05.999Z,79.66
2022-08-07T04:51:49.617Z,79.64
2022-08-07T04:58:09.901Z,79.60
2022-08-07T05:02:32.712Z,79.99
2022-08-07T05:05:53.605Z,80.19
2022-08-07T05:09:00.777Z,80.36
2022-08-07T05:11:57.536Z,80.36
2022-08-07T05:14:59.106Z,80.20
2022-08-07T05:18:06.226Z,79.64
2022-08-07T05:21:01.410Z,78.21
2022-08-07T05:24:06.834Z,76.18
2022-08-07T05:26:59.484Z,71.65
2022-08-07T05:29:52.074Z,64.59
2022-08-07T05:32:41.705Z,59.72
2022-08-07T05:35:41.754Z,55.34
2022-08-07T05:39:00.201Z,50.91
2022-08-07T05:42:01.664Z,46.47
2022-08-07T05:45:04.466Z,43.02
2022-08-07T05:48:05.901Z,39.97
2022-08-07T05:51:04.624Z,38.03
2022-08-07T05:54:12.816Z,36.55
2022-08-07T05:57:03.534Z,35.17
2022-08-07T05:59:57.615Z,34.11
2022-08-07T06:02:51.998Z,32.55
2022-08-07T06:05:48.857Z,32.09
2022-08-07T06:08:42.636Z,31.83
2022-08-07T06:11:34.782Z,30.81
2022-08-07T06:14:28.703Z,30.08
2022-08-07T06:17:22.277Z,29.48
2022-08-07T06:20:12.761Z,28.02
2022-08-07T06:23:46.465Z,27.91
2022-08-07T06:26:27.459Z,27.34
2022-08-07T06:29:17.600Z,27.23
2022-08-07T06:32:06.287Z,27.39
2022-08-07T06:34:55.353Z,27.20
2022-08-07T06:37:44.689Z,27.33
2022-08-07T06:40:50.174Z,27.99
2022-08-07T06:43:46.113Z,30.02
2022-08-07T06:46:40.841Z,29.67
2022-08-07T06:49:33.382Z,28.91
2022-08-07T06:52:45.194Z,27.51
2022-08-07T06:55:47.542Z,26.47
2022-08-07T06:58:37.609Z,25.85
2022-08-07T07:01:33.325Z,24.87
2022-08-07T07:04:34.033Z,24.14
2022-08-07T07:07:59.108Z,24.07
2022-08-07T07:10:34.741Z,23.34
2022-08-07T07:13:56.483Z,22.88
2022-08-07T07:16:51.023Z,24.27
2022-08-07T07:19:56.130Z,23.76
2022-08-07T07:24:08.377Z,23.58
2022-08-07T07:26:34.471Z,24.19
2022-08-07T07:29:55.756Z,24.85
2022-08-07T07:32:24.669Z,24.98
2022-08-07T07:35:14.463Z,24.04
2022-08-07T07:38:05.744Z,23.40
2022-08-07T07:41:02.851Z,22.95
2022-08-07T07:44:14.204Z,22.47
2022-08-07T07:47:14.149Z,23.16
2022-08-07T07:50:35.716Z,24.53
2022-08-07T07:53:23.155Z,25.79
2022-08-07T07:56:15.847Z,24.66
2022-08-07T07:59:06.549Z,23.72
2022-08-07T08:02:03.942Z,23.72
2022-08-07T08:04:56.424Z,24.88
2022-08-07T08:08:00.749Z,26.36
2022-08-07T08:10:51.598Z,26.98
2022-08-07T08:13:54.592Z,26.36
2022-08-07T08:16:50.259Z,27.36
2022-08-07T08:20:17.570Z,28.86
2022-08-07T08:23:10.381Z,28.76
2022-08-07T08:26:21.822Z,27.78
2022-08-07T08:29:17.204Z,26.41
2022-08-07T08:32:18.994Z,25.04
2022-08-07T08:35:42.940Z,23.81
2022-08-07T08:38:44.531Z,22.96
2022-08-07T08:42:01.353Z,24.06
2022-08-07T08:45:01.085Z,26.81
2022-08-07T08:48:18.798Z,29.51
2022-08-07T08:51:49.890Z,32.28
2022-08-07T08:54:48.391Z,33.74
2022-08-07T08:57:45.753Z,34.92
2022-08-07T09:00:48.349Z,35.11
2022-08-07T09:04:08.103Z,36.29
2022-08-07T09:07:25.384Z,35.14
2022-08-07T09:10:34.186Z,30.93
2022-08-07T09:14:01.784Z,29.75
2022-08-07T09:17:18.645Z,28.92
2022-08-07T09:20:35.298Z,27.91
2022-08-07T09:24:33.686Z,27.47
2022-08-07T09:27:30.317Z,25.44
2022-08-07T09:30:20.602Z,24.85
2022-08-07T09:33:57.013Z,24.18
2022-08-07T09:37:01.407Z,24.14
2022-08-07T09:40:06.237Z,23.01
2022-08-07T09:44:06.000Z,21.73
2022-08-07T09:47:49.711Z,21.66
2022-08-07T09:51:00.872Z,21.06
2022-08-07T09:53:57.050Z,22.30
2022-08-07T09:57:46.622Z,24.61
2022-08-07T10:00:52.108Z,27.58
2022-08-07T10:04:17.059Z,29.57
2022-08-07T10:08:09.704Z,32.03
2022-08-07T10:12:03.154Z,34.46
2022-08-07T10:14:54.977Z,36.48
2022-08-07T10:18:26.432Z,38.14
2022-08-07T10:22:16.101Z,39.79
2022-08-07T10:25:42.567Z,40.81
2022-08-07T10:28:41.732Z,41.16
2022-08-07T10:32:04.587Z,41.24
2022-08-07T10:35:55.090Z,40.55
2022-08-07T10:39:05.470Z,38.69
2022-08-07T10:42:38.987Z,38.53
2022-08-07T10:45:58.079Z,38.16
2022-08-07T10:49:15.947Z,35.96
2022-08-07T10:52:22.109Z,31.88
2022-08-07T10:55:53.533Z,28.79
2022-08-07T10:59:21.258Z,27.10
2022-08-07T11:03:03.939Z,26.03
2022-08-07T11:06:15.756Z,25.38
2022-08-07T11:10:07.979Z,25.52
2022-08-07T11:14:41.943Z,26.04
2022-08-07T11:16:48.000Z,26.06
2022-08-07T11:19:55.200Z,27.41
2022-08-07T11:23:36.506Z,28.57
2022-08-07T11:26:43.435Z,30.02
2022-08-07T11:29:53.875Z,30.03
2022-08-07T11:33:19.239Z,30.44
2022-08-07T11:37:03.007Z,31.29
2022-08-07T11:40:10.138Z,30.87
2022-08-07T11:43:41.711Z,30.93
2022-08-07T11:47:02.840Z,31.19
2022-08-07T11:50:44.751Z,31.12
2022-08-07T11:54:54.434Z,31.80
2022-08-07T11:58:16.085Z,31.99
2022-08-07T12:01:06.781Z,32.58
2022-08-07T12:04:37.915Z,32.55
2022-08-07T12:07:39.231Z,32.64
2022-08-07T12:10:49.263Z,32.29
2022-08-07T12:14:08.682Z,32.18
2022-08-07T12:17:07.158Z,32.31
2022-08-07T12:20:12.917Z,32.85
2022-08-07T12:24:07.615Z,32.75
2022-08-07T12:27:03.481Z,32.93
2022-08-07T12:30:07.471Z,32.79
2022-08-07T12:33:18.645Z,33.11
2022-08-07T12:36:11.024Z,33.45
2022-08-07T12:39:00.132Z,35.29
2022-08-07T12:41:51.840Z,37.20
2022-08-07T12:44:47.178Z,38.14
2022-08-07T12:48:28.500Z,39.54
2022-08-07T12:51:33.207Z,40.84
2022-08-07T12:55:16.371Z,41.63
2022-08-07T12:58:12.854Z,42.67
2022-08-07T13:01:06.486Z,43.61
2022-08-07T13:04:57.696Z,43.99
2022-08-07T13:08:32.762Z,44.23
2022-08-07T13:12:03.583Z,44.45
2022-08-07T13:15:31.619Z,44.47
2022-08-07T13:18:54.804Z,44.61
2022-08-07T13:22:31.649Z,44.77
2022-08-07T13:25:45.961Z,44.57
2022-08-07T13:28:59.046Z,43.97
2022-08-07T13:32:31.052Z,43.11
2022-08-07T13:36:00.626Z,42.63
2022-08-07T13:39:48.954Z,42.54
2022-08-07T13:42:37.582Z,42.41
2022-08-07T13:46:12.412Z,42.86
2022-08-07T13:48:51.979Z,42.80
2022-08-07T13:52:16.382Z,42.87
2022-08-07T13:55:00.617Z,42.79
2022-08-07T13:58:02.031Z,43.24
2022-08-07T14:00:54.775Z,43.63
2022-08-07T14:04:07.114Z,43.71
2022-08-07T14:06:55.403Z,43.82
2022-08-07T14:10:02.376Z,44.24
2022-08-07T14:13:01.471Z,44.83
2022-08-07T14:16:00.492Z,45.10
2022-08-07T14:18:57.311Z,45.75
2022-08-07T14:22:00.967Z,46.55
2022-08-07T14:24:53.611Z,47.16
2022-08-07T14:28:12.356Z,47.30
2022-08-07T14:30:58.440Z,48.08
2022-08-07T14:33:49.815Z,48.93
2022-08-07T14:36:39.285Z,48.90
2022-08-07T14:40:15.559Z,49.25
2022-08-07T14:45:51.621Z,49.69
2022-08-07T14:48:48.398Z,50.28
2022-08-07T14:54:49.719Z,51.51
2022-08-07T14:57:54.678Z,51.98
2022-08-07T15:00:51.548Z,52.59
2022-08-07T15:03:52.576Z,52.78
2022-08-07T15:06:48.970Z,52.80
2022-08-07T15:13:06.400Z,52.95
2022-08-07T15:20:31.500Z,53.96
2022-08-07T15:26:22.555Z,55.23
2022-08-07T15:30:06.467Z,55.62
2022-08-07T15:32:39.938Z,55.76
2022-08-07T15:38:58.928Z,55.89
2022-08-07T15:42:46.616Z,56.10
2022-08-07T15:45:55.467Z,56.33
2022-08-07T15:49:03.682Z,56.31
2022-08-07T15:54:48.439Z,56.48
2022-08-07T15:57:40.000Z,56.61
2022-08-07T16:00:44.315Z,56.57
2022-08-07T16:03:46.980Z,56.85
2022-08-07T16:07:04.752Z,57.19
2022-08-07T16:10:14.944Z,57.37
2022-08-07T16:13:59.301Z,57.69
2022-08-07T16:18:03.933Z,57.83
2022-08-07T16:22:03.301Z,58.30
2022-08-07T16:25:55.528Z,58.02
2022-08-07T16:30:07.090Z,58.40
2022-08-07T16:32:34.476Z,58.60
2022-08-07T16:35:56.902Z,58.76
2022-08-07T16:39:33.735Z,59.15
2022-08-07T16:42:58.117Z,59.55
2022-08-07T16:47:04.448Z,59.90
2022-08-07T16:50:28.441Z,60.25
2022-08-07T16:54:08.882Z,60.71
2022-08-07T16:58:01.752Z,61.09
2022-08-07T17:01:08.062Z,61.48
2022-08-07T17:04:24.689Z,61.42
2022-08-07T17:07:55.230Z,61.76
2022-08-07T17:10:54.512Z,61.67
2022-08-07T17:14:19.386Z,61.96
2022-08-07T17:17:44.060Z,61.75
2022-08-07T17:20:41.954Z,61.85
2022-08-07T17:23:54.125Z,62.04
2022-08-07T17:26:59.658Z,62.01
2022-08-07T17:30:16.192Z,62.19
2022-08-07T17:34:09.249Z,61.87
2022-08-07T17:36:57.952Z,61.64
2022-08-07T17:40:30.611Z,61.70
2022-08-07T17:44:01.431Z,62.17
2022-08-07T17:46:55.101Z,62.39
2022-08-07T17:49:56.952Z,62.28
2022-08-07T17:54:01.552Z,62.43
2022-08-07T17:56:36.528Z,62.44
2022-08-07T18:00:06.002Z,62.48
2022-08-07T18:03:18.478Z,62.74
2022-08-07T18:06:16.677Z,62.59
2022-08-07T18:10:04.410Z,62.62
2022-08-07T18:12:59.806Z,62.64
2022-08-07T18:16:09.320Z,62.54
2022-08-07T18:21:07.526Z,62.64
2022-08-07T18:22:47.679Z,63.08
2022-08-07T18:25:41.895Z,63.51
2022-08-07T18:30:06.173Z,63.86
2022-08-07T18:32:55.637Z,64.28
2022-08-07T18:36:54.410Z,64.63
2022-08-07T18:40:17.933Z,64.46
2022-08-07T18:44:00.681Z,64.26
2022-08-07T18:47:25.494Z,63.91
2022-08-07T18:50:49.568Z,63.89
2022-08-07T18:54:30.967Z,64.02
2022-08-07T18:57:33.489Z,64.54
2022-08-07T19:02:18.880Z,64.59
2022-08-07T19:04:57.855Z,64.84
2022-08-07T19:08:28.046Z,64.47
2022-08-07T19:11:36.639Z,64.90
2022-08-07T19:16:05.826Z,65.12
2022-08-07T19:18:45.080Z,65.50
2022-08-07T19:22:04.866Z,66.14
2022-08-07T19:24:54.118Z,67.44
2022-08-07T19:28:58.737Z,68.21
2022-08-07T19:31:37.312Z,68.99
2022-08-07T19:34:11.871Z,69.65
2022-08-07T19:37:10.035Z,69.84
2022-08-07T19:40:09.770Z,70.75
2022-08-07T19:42:57.559Z,70.98
2022-08-07T19:46:07.246Z,71.56
2022-08-07T19:49:17.792Z,71.91
2022-08-07T19:52:32.168Z,72.49
2022-08-07T19:55:24.188Z,72.47
2022-08-07T19:58:15.872Z,72.40
2022-08-07T20:01:04.071Z,72.40
2022-08-07T20:04:04.450Z,72.80
2022-08-07T20:06:56.645Z,73.06
2022-08-07T20:10:35.427Z,73.24
2022-08-07T20:13:05.876Z,72.82
2022-08-07T20:15:57.846Z,73.27
2022-08-07T20:18:49.165Z,73.28
2022-08-07T20:21:47.517Z,73.47
2022-08-07T20:24:38.681Z,73.56
2022-08-07T20:27:47.662Z,73.78
2022-08-07T20:30:46.865Z,73.94
2022-08-07T20:33:38.280Z,74.23
2022-08-07T20:36:31.495Z,74.69
2022-08-07T20:40:04.021Z,74.88
2022-08-07T20:42:56.227Z,75.71
2022-08-07T20:46:25.920Z,76.28
2022-08-07T20:49:59.006Z,76.48
2022-08-07T20:52:29.910Z,76.82
2022-08-07T20:55:23.852Z,76.83
2022-08-07T20:58:19.491Z,76.76
2022-08-07T21:01:19.416Z,76.87
2022-08-07T21:04:21.823Z,76.96
2022-08-07T21:07:14.579Z,77.04
2022-08-07T21:10:11.625Z,77.29
2022-08-07T21:13:05.212Z,77.41
2022-08-07T21:16:00.967Z,77.47
2022-08-07T21:18:51.275Z,77.71
2022-08-07T21:21:49.298Z,77.88
2022-08-07T21:25:29.150Z,77.79
2022-08-07T21:28:48.262Z,78.18
2022-08-07T21:32:47.763Z,78.46
2022-08-07T21:36:06.088Z,78.72
2022-08-07T21:38:55.527Z,79.16
2022-08-07T21:42:42.543Z,79.42
2022-08-07T21:46:09.225Z,80.08
2022-08-07T21:49:17.992Z,80.25
2022-08-07T21:52:44.421Z,80.60
2022-08-07T21:55:56.143Z,81.20
2022-08-07T21:59:04.626Z,81.71
2022-08-07T22:02:10.420Z,82.16
2022-08-07T22:05:04.034Z,82.76
2022-08-07T22:07:58.685Z,83.52
2022-08-07T22:10:58.258Z,84.02
2022-08-07T22:13:54.890Z,84.14
2022-08-07T22:16:56.548Z,84.13
2022-08-07T22:20:22.959Z,84.74
2022-08-07T22:23:26.657Z,84.54
2022-08-07T22:26:30.555Z,85.05
2022-08-07T22:29:54.825Z,85.12
2022-08-07T22:33:15.335Z,85.19
2022-08-07T22:36:34.362Z,85.25
2022-08-07T22:39:52.473Z,85.21
2022-08-07T22:42:44.932Z,84.93
2022-08-07T22:46:40.932Z,84.90
2022-08-07T22:49:54.178Z,85.05
2022-08-07T22:54:07.643Z,85.23
2022-08-07T22:57:04.000Z,85.33
2022-08-07T23:00:14.907Z,85.22
2022-08-07T23:03:29.041Z,85.12
2022-08-07T23:06:57.975Z,84.85
2022-08-07T23:10:36.413Z,84.59
2022-08-07T23:14:16.491Z,84.45
2022-08-07T23:17:29.779Z,84.30
2022-08-07T23:21:02.886Z,84.17
2022-08-07T23:24:45.431Z,84.02
2022-08-07T23:28:28.477Z,83.72
2022-08-07T23:32:49.621Z,83.71
2022-08-07T23:35:16.783Z,83.49
2022-08-07T23:38:45.285Z,83.21
2022-08-07T23:42:05.107Z,82.86
2022-08-07T23:45:33.488Z,82.67
2022-08-07T23:48:50.600Z,82.69
2022-08-07T23:53:00.113Z,82.48
2022-08-07T23:55:05.547Z,82.41
2022-08-07T23:58:18.783Z,82.49
